< < Back
Terminal Aerodrome Forecast


Current Version              Previous Versions:   1  2  3  4  5  6  7  8  9  

Terminal Aerodrome Forecast

317
FTUS42 KCAE 251000 AAA
TAFAGS
TAF AMD
KAGS 251000Z 2510/2606 VRB03KT P6SM SCT100
      TEMPO 2510/2512 4SM BR
     FM251500 28005KT P6SM SCT040 BKN080
     FM252300 00000KT P6SM SCT250=



Latest METAR

508
SAUS70 KWBC 251000 RRF
MTRAGS
METAR KAGS 250953Z AUTO 19003KT 6SM BR CLR 22/21 A2996 RMK AO2 SLP143
T02220211


USA.gov is the U.S. government's official web portal to all federal, state and local government web resources and services.